sensor_id;sensor_type;location;lat;lon;timestamp;P1;durP1;ratioP1;P2;durP2;ratioP2
12332;SDS011;6232;48.094;11.288;2024-02-26T00:01:08;3.13;;;2.93;;
12332;SDS011;6232;48.094;11.288;2024-02-26T00:03:53;3.33;;;3.13;;
12332;SDS011;6232;48.094;11.288;2024-02-26T00:06:40;2.90;;;2.70;;
12332;SDS011;6232;48.094;11.288;2024-02-26T00:09:26;3.37;;;3.07;;
12332;SDS011;6232;48.094;11.288;2024-02-26T00:12:12;4.70;;;3.20;;
12332;SDS011;6232;48.094;11.288;2024-02-26T00:14:57;2.60;;;2.30;;
12332;SDS011;6232;48.094;11.288;2024-02-26T00:17:43;3.33;;;3.00;;
12332;SDS011;6232;48.094;11.288;2024-02-26T00:20:29;2.90;;;2.70;;
12332;SDS011;6232;48.094;11.288;2024-02-26T00:23:15;3.17;;;3.00;;
12332;SDS011;6232;48.094;11.288;2024-02-26T00:26:00;3.50;;;3.20;;
12332;SDS011;6232;48.094;11.288;2024-02-26T00:28:46;3.30;;;3.00;;
12332;SDS011;6232;48.094;11.288;2024-02-26T00:31:31;5.10;;;2.70;;
12332;SDS011;6232;48.094;11.288;2024-02-26T00:34:17;4.17;;;3.77;;
12332;SDS011;6232;48.094;11.288;2024-02-26T00:37:03;2.70;;;2.50;;
12332;SDS011;6232;48.094;11.288;2024-02-26T00:39:49;3.03;;;2.73;;
12332;SDS011;6232;48.094;11.288;2024-02-26T00:42:34;2.77;;;2.57;;
12332;SDS011;6232;48.094;11.288;2024-02-26T00:45:20;3.40;;;3.10;;
12332;SDS011;6232;48.094;11.288;2024-02-26T00:48:06;2.70;;;2.50;;
12332;SDS011;6232;48.094;11.288;2024-02-26T00:50:52;3.17;;;2.93;;
12332;SDS011;6232;48.094;11.288;2024-02-26T00:53:38;3.27;;;3.07;;
12332;SDS011;6232;48.094;11.288;2024-02-26T00:56:23;3.47;;;3.23;;
12332;SDS011;6232;48.094;11.288;2024-02-26T00:59:09;4.00;;;3.17;;
12332;SDS011;6232;48.094;11.288;2024-02-26T01:01:54;5.10;;;2.77;;
12332;SDS011;6232;48.094;11.288;2024-02-26T01:04:40;3.47;;;3.13;;
12332;SDS011;6232;48.094;11.288;2024-02-26T01:07:25;2.87;;;2.67;;
12332;SDS011;6232;48.094;11.288;2024-02-26T01:10:11;4.33;;;2.77;;
12332;SDS011;6232;48.094;11.288;2024-02-26T01:12:56;2.57;;;2.47;;
12332;SDS011;6232;48.094;11.288;2024-02-26T01:15:42;3.30;;;3.00;;
12332;SDS011;6232;48.094;11.288;2024-02-26T01:18:29;3.30;;;3.07;;
12332;SDS011;6232;48.094;11.288;2024-02-26T01:21:14;2.70;;;2.50;;
12332;SDS011;6232;48.094;11.288;2024-02-26T01:24:00;2.53;;;2.33;;
12332;SDS011;6232;48.094;11.288;2024-02-26T01:26:45;3.10;;;2.80;;
12332;SDS011;6232;48.094;11.288;2024-02-26T01:29:31;2.70;;;2.50;;
12332;SDS011;6232;48.094;11.288;2024-02-26T01:32:16;3.13;;;2.93;;
12332;SDS011;6232;48.094;11.288;2024-02-26T01:35:02;3.10;;;2.80;;
12332;SDS011;6232;48.094;11.288;2024-02-26T01:37:55;3.33;;;3.03;;
12332;SDS011;6232;48.094;11.288;2024-02-26T01:40:41;3.50;;;2.73;;
12332;SDS011;6232;48.094;11.288;2024-02-26T01:43:26;3.17;;;3.00;;
12332;SDS011;6232;48.094;11.288;2024-02-26T01:46:12;3.30;;;3.00;;
12332;SDS011;6232;48.094;11.288;2024-02-26T01:49:01;5.97;;;2.83;;
12332;SDS011;6232;48.094;11.288;2024-02-26T01:51:47;3.17;;;2.93;;
12332;SDS011;6232;48.094;11.288;2024-02-26T01:54:36;2.63;;;2.43;;
12332;SDS011;6232;48.094;11.288;2024-02-26T01:57:22;2.83;;;2.73;;
12332;SDS011;6232;48.094;11.288;2024-02-26T02:00:08;2.47;;;2.37;;
12332;SDS011;6232;48.094;11.288;2024-02-26T02:02:54;2.80;;;2.60;;
12332;SDS011;6232;48.094;11.288;2024-02-26T02:05:40;3.20;;;2.80;;
12332;SDS011;6232;48.094;11.288;2024-02-26T02:08:27;3.50;;;3.30;;
12332;SDS011;6232;48.094;11.288;2024-02-26T02:11:13;2.87;;;2.67;;
12332;SDS011;6232;48.094;11.288;2024-02-26T02:14:00;2.60;;;2.50;;
12332;SDS011;6232;48.094;11.288;2024-02-26T02:16:47;3.57;;;2.97;;
12332;SDS011;6232;48.094;11.288;2024-02-26T02:19:34;7.70;;;2.70;;
12332;SDS011;6232;48.094;11.288;2024-02-26T02:22:19;3.47;;;2.80;;
12332;SDS011;6232;48.094;11.288;2024-02-26T02:25:05;2.73;;;2.53;;
12332;SDS011;6232;48.094;11.288;2024-02-26T02:27:50;2.90;;;2.63;;
12332;SDS011;6232;48.094;11.288;2024-02-26T02:30:37;2.90;;;2.70;;
12332;SDS011;6232;48.094;11.288;2024-02-26T02:33:23;3.33;;;2.50;;
12332;SDS011;6232;48.094;11.288;2024-02-26T02:36:10;2.60;;;2.40;;
12332;SDS011;6232;48.094;11.288;2024-02-26T02:38:56;2.43;;;2.33;;
12332;SDS011;6232;48.094;11.288;2024-02-26T02:41:42;3.97;;;2.70;;
12332;SDS011;6232;48.094;11.288;2024-02-26T02:44:27;4.23;;;2.50;;
12332;SDS011;6232;48.094;11.288;2024-02-26T02:47:13;2.80;;;2.63;;
12332;SDS011;6232;48.094;11.288;2024-02-26T02:49:59;3.00;;;2.80;;
12332;SDS011;6232;48.094;11.288;2024-02-26T02:52:44;2.77;;;2.60;;
12332;SDS011;6232;48.094;11.288;2024-02-26T02:55:30;2.63;;;2.53;;
12332;SDS011;6232;48.094;11.288;2024-02-26T02:58:15;3.40;;;3.07;;
12332;SDS011;6232;48.094;11.288;2024-02-26T03:01:01;2.80;;;2.60;;
12332;SDS011;6232;48.094;11.288;2024-02-26T03:03:46;3.37;;;3.07;;
12332;SDS011;6232;48.094;11.288;2024-02-26T03:06:32;2.67;;;2.57;;
12332;SDS011;6232;48.094;11.288;2024-02-26T03:09:17;2.47;;;2.30;;
12332;SDS011;6232;48.094;11.288;2024-02-26T03:12:03;4.03;;;2.53;;
12332;SDS011;6232;48.094;11.288;2024-02-26T03:14:49;2.93;;;2.73;;
12332;SDS011;6232;48.094;11.288;2024-02-26T03:17:34;2.80;;;2.67;;
12332;SDS011;6232;48.094;11.288;2024-02-26T03:20:20;2.80;;;2.60;;
12332;SDS011;6232;48.094;11.288;2024-02-26T03:23:05;3.83;;;2.70;;
12332;SDS011;6232;48.094;11.288;2024-02-26T03:25:51;3.00;;;2.80;;
12332;SDS011;6232;48.094;11.288;2024-02-26T03:28:36;3.23;;;3.03;;
12332;SDS011;6232;48.094;11.288;2024-02-26T03:31:22;2.80;;;2.43;;
12332;SDS011;6232;48.094;11.288;2024-02-26T03:34:07;4.43;;;2.90;;
12332;SDS011;6232;48.094;11.288;2024-02-26T03:36:53;2.60;;;2.50;;
12332;SDS011;6232;48.094;11.288;2024-02-26T03:39:38;3.00;;;2.80;;
12332;SDS011;6232;48.094;11.288;2024-02-26T03:42:24;2.90;;;2.63;;
12332;SDS011;6232;48.094;11.288;2024-02-26T03:45:10;2.00;;;1.90;;
12332;SDS011;6232;48.094;11.288;2024-02-26T03:47:55;3.03;;;2.87;;
12332;SDS011;6232;48.094;11.288;2024-02-26T03:50:41;2.73;;;2.53;;
12332;SDS011;6232;48.094;11.288;2024-02-26T03:53:26;2.77;;;2.57;;
12332;SDS011;6232;48.094;11.288;2024-02-26T03:56:13;11.07;;;2.73;;
12332;SDS011;6232;48.094;11.288;2024-02-26T03:58:58;3.27;;;3.03;;
12332;SDS011;6232;48.094;11.288;2024-02-26T04:01:45;3.33;;;2.50;;
12332;SDS011;6232;48.094;11.288;2024-02-26T04:04:35;3.00;;;2.77;;
12332;SDS011;6232;48.094;11.288;2024-02-26T04:07:21;3.43;;;2.97;;
12332;SDS011;6232;48.094;11.288;2024-02-26T04:10:10;2.90;;;2.70;;
12332;SDS011;6232;48.094;11.288;2024-02-26T04:12:55;3.00;;;2.80;;
12332;SDS011;6232;48.094;11.288;2024-02-26T04:15:41;2.87;;;2.67;;
12332;SDS011;6232;48.094;11.288;2024-02-26T04:18:27;2.67;;;2.57;;
12332;SDS011;6232;48.094;11.288;2024-02-26T04:21:12;2.97;;;2.77;;
12332;SDS011;6232;48.094;11.288;2024-02-26T04:23:58;2.47;;;2.37;;
12332;SDS011;6232;48.094;11.288;2024-02-26T04:26:46;2.47;;;2.37;;
12332;SDS011;6232;48.094;11.288;2024-02-26T04:29:32;5.47;;;3.40;;
12332;SDS011;6232;48.094;11.288;2024-02-26T04:32:18;4.00;;;3.20;;
12332;SDS011;6232;48.094;11.288;2024-02-26T04:35:04;3.87;;;3.47;;
12332;SDS011;6232;48.094;11.288;2024-02-26T04:37:50;3.30;;;3.10;;
12332;SDS011;6232;48.094;11.288;2024-02-26T04:40:35;3.00;;;2.80;;
12332;SDS011;6232;48.094;11.288;2024-02-26T04:43:21;2.53;;;2.43;;
12332;SDS011;6232;48.094;11.288;2024-02-26T04:46:07;2.80;;;2.70;;
12332;SDS011;6232;48.094;11.288;2024-02-26T04:48:53;3.20;;;3.00;;
12332;SDS011;6232;48.094;11.288;2024-02-26T04:51:39;2.23;;;2.13;;
12332;SDS011;6232;48.094;11.288;2024-02-26T04:54:24;5.17;;;3.40;;
12332;SDS011;6232;48.094;11.288;2024-02-26T04:57:10;2.47;;;2.37;;
12332;SDS011;6232;48.094;11.288;2024-02-26T04:59:55;6.83;;;2.97;;
12332;SDS011;6232;48.094;11.288;2024-02-26T05:02:41;3.43;;;3.13;;
12332;SDS011;6232;48.094;11.288;2024-02-26T05:05:26;3.13;;;2.93;;
12332;SDS011;6232;48.094;11.288;2024-02-26T05:08:12;2.90;;;2.70;;
12332;SDS011;6232;48.094;11.288;2024-02-26T05:10:58;4.27;;;2.80;;
12332;SDS011;6232;48.094;11.288;2024-02-26T05:13:43;5.73;;;3.00;;
12332;SDS011;6232;48.094;11.288;2024-02-26T05:16:30;4.13;;;3.30;;
12332;SDS011;6232;48.094;11.288;2024-02-26T05:19:16;4.07;;;3.47;;
12332;SDS011;6232;48.094;11.288;2024-02-26T05:22:02;3.53;;;3.20;;
12332;SDS011;6232;48.094;11.288;2024-02-26T05:24:47;4.83;;;2.90;;
12332;SDS011;6232;48.094;11.288;2024-02-26T05:27:33;4.47;;;4.10;;
12332;SDS011;6232;48.094;11.288;2024-02-26T05:30:18;8.23;;;5.20;;
12332;SDS011;6232;48.094;11.288;2024-02-26T05:33:04;5.90;;;3.40;;
12332;SDS011;6232;48.094;11.288;2024-02-26T05:35:49;3.80;;;3.50;;
12332;SDS011;6232;48.094;11.288;2024-02-26T05:38:35;4.63;;;4.23;;
12332;SDS011;6232;48.094;11.288;2024-02-26T05:41:21;4.40;;;3.63;;
12332;SDS011;6232;48.094;11.288;2024-02-26T05:44:11;5.37;;;4.43;;
12332;SDS011;6232;48.094;11.288;2024-02-26T05:46:57;3.97;;;3.60;;
12332;SDS011;6232;48.094;11.288;2024-02-26T05:49:43;4.13;;;3.40;;
12332;SDS011;6232;48.094;11.288;2024-02-26T05:52:28;7.60;;;4.47;;
12332;SDS011;6232;48.094;11.288;2024-02-26T05:55:15;4.23;;;3.60;;
12332;SDS011;6232;48.094;11.288;2024-02-26T05:58:00;4.37;;;4.07;;
12332;SDS011;6232;48.094;11.288;2024-02-26T06:00:46;4.17;;;3.53;;
12332;SDS011;6232;48.094;11.288;2024-02-26T06:03:31;3.80;;;3.40;;
12332;SDS011;6232;48.094;11.288;2024-02-26T06:06:18;3.13;;;2.97;;
12332;SDS011;6232;48.094;11.288;2024-02-26T06:09:03;2.73;;;2.53;;
12332;SDS011;6232;48.094;11.288;2024-02-26T06:11:50;3.03;;;2.83;;
12332;SDS011;6232;48.094;11.288;2024-02-26T06:14:36;7.27;;;3.30;;
12332;SDS011;6232;48.094;11.288;2024-02-26T06:17:21;15.67;;;3.47;;
12332;SDS011;6232;48.094;11.288;2024-02-26T06:20:07;3.53;;;2.70;;
12332;SDS011;6232;48.094;11.288;2024-02-26T06:22:57;4.70;;;3.60;;
12332;SDS011;6232;48.094;11.288;2024-02-26T06:25:42;8.23;;;4.37;;
12332;SDS011;6232;48.094;11.288;2024-02-26T06:28:28;5.03;;;3.90;;
12332;SDS011;6232;48.094;11.288;2024-02-26T06:31:15;7.53;;;3.00;;
12332;SDS011;6232;48.094;11.288;2024-02-26T06:34:01;3.33;;;3.03;;
12332;SDS011;6232;48.094;11.288;2024-02-26T06:36:46;4.30;;;3.93;;
12332;SDS011;6232;48.094;11.288;2024-02-26T06:39:32;3.40;;;3.13;;
12332;SDS011;6232;48.094;11.288;2024-02-26T06:42:18;3.93;;;3.50;;
12332;SDS011;6232;48.094;11.288;2024-02-26T06:45:04;4.23;;;3.77;;
12332;SDS011;6232;48.094;11.288;2024-02-26T06:47:49;4.20;;;3.40;;
12332;SDS011;6232;48.094;11.288;2024-02-26T06:50:35;5.43;;;4.07;;
12332;SDS011;6232;48.094;11.288;2024-02-26T06:53:21;3.57;;;3.00;;
12332;SDS011;6232;48.094;11.288;2024-02-26T06:56:06;4.83;;;3.80;;
12332;SDS011;6232;48.094;11.288;2024-02-26T06:58:52;4.37;;;3.60;;
12332;SDS011;6232;48.094;11.288;2024-02-26T07:01:40;5.33;;;3.57;;
12332;SDS011;6232;48.094;11.288;2024-02-26T07:04:25;4.93;;;4.40;;
12332;SDS011;6232;48.094;11.288;2024-02-26T07:07:11;3.60;;;3.30;;
12332;SDS011;6232;48.094;11.288;2024-02-26T07:09:57;3.67;;;3.40;;
12332;SDS011;6232;48.094;11.288;2024-02-26T07:12:42;4.60;;;3.60;;
12332;SDS011;6232;48.094;11.288;2024-02-26T07:15:28;4.10;;;3.70;;
12332;SDS011;6232;48.094;11.288;2024-02-26T07:18:14;6.53;;;3.40;;
12332;SDS011;6232;48.094;11.288;2024-02-26T07:21:01;3.90;;;3.60;;
12332;SDS011;6232;48.094;11.288;2024-02-26T07:23:47;3.80;;;3.50;;
12332;SDS011;6232;48.094;11.288;2024-02-26T07:26:35;3.67;;;3.37;;
12332;SDS011;6232;48.094;11.288;2024-02-26T07:29:20;3.93;;;3.63;;
12332;SDS011;6232;48.094;11.288;2024-02-26T07:32:06;7.53;;;4.60;;
12332;SDS011;6232;48.094;11.288;2024-02-26T07:34:51;3.40;;;3.10;;
12332;SDS011;6232;48.094;11.288;2024-02-26T07:37:37;6.33;;;3.90;;
12332;SDS011;6232;48.094;11.288;2024-02-26T07:40:23;4.03;;;3.63;;
12332;SDS011;6232;48.094;11.288;2024-02-26T07:43:08;4.20;;;3.63;;
12332;SDS011;6232;48.094;11.288;2024-02-26T07:45:54;3.40;;;3.10;;
12332;SDS011;6232;48.094;11.288;2024-02-26T07:48:40;4.17;;;3.87;;
12332;SDS011;6232;48.094;11.288;2024-02-26T07:51:26;13.97;;;4.67;;
12332;SDS011;6232;48.094;11.288;2024-02-26T07:54:12;6.77;;;5.07;;
12332;SDS011;6232;48.094;11.288;2024-02-26T07:56:57;4.37;;;3.97;;
12332;SDS011;6232;48.094;11.288;2024-02-26T07:59:43;4.80;;;3.70;;
12332;SDS011;6232;48.094;11.288;2024-02-26T08:02:30;6.83;;;4.40;;
12332;SDS011;6232;48.094;11.288;2024-02-26T08:05:15;6.57;;;5.40;;
12332;SDS011;6232;48.094;11.288;2024-02-26T08:08:01;6.60;;;4.40;;
12332;SDS011;6232;48.094;11.288;2024-02-26T08:10:47;5.30;;;4.40;;
12332;SDS011;6232;48.094;11.288;2024-02-26T08:13:32;5.60;;;5.13;;
12332;SDS011;6232;48.094;11.288;2024-02-26T08:16:18;9.50;;;5.10;;
12332;SDS011;6232;48.094;11.288;2024-02-26T08:19:04;4.53;;;4.07;;
12332;SDS011;6232;48.094;11.288;2024-02-26T08:21:49;5.57;;;4.30;;
12332;SDS011;6232;48.094;11.288;2024-02-26T08:24:35;4.93;;;3.87;;
12332;SDS011;6232;48.094;11.288;2024-02-26T08:27:20;8.23;;;4.87;;
12332;SDS011;6232;48.094;11.288;2024-02-26T08:30:06;13.70;;;5.93;;
12332;SDS011;6232;48.094;11.288;2024-02-26T08:32:52;5.33;;;4.27;;
12332;SDS011;6232;48.094;11.288;2024-02-26T08:35:38;4.87;;;4.33;;
12332;SDS011;6232;48.094;11.288;2024-02-26T08:38:24;5.43;;;4.20;;
12332;SDS011;6232;48.094;11.288;2024-02-26T08:41:10;4.30;;;3.90;;
12332;SDS011;6232;48.094;11.288;2024-02-26T08:43:55;6.90;;;4.43;;
12332;SDS011;6232;48.094;11.288;2024-02-26T08:46:41;9.33;;;4.50;;
12332;SDS011;6232;48.094;11.288;2024-02-26T08:49:26;4.67;;;4.00;;
12332;SDS011;6232;48.094;11.288;2024-02-26T08:52:12;6.07;;;4.13;;
12332;SDS011;6232;48.094;11.288;2024-02-26T08:54:59;6.00;;;4.50;;
12332;SDS011;6232;48.094;11.288;2024-02-26T08:57:44;4.80;;;4.13;;
12332;SDS011;6232;48.094;11.288;2024-02-26T09:00:30;3.50;;;3.20;;
12332;SDS011;6232;48.094;11.288;2024-02-26T09:03:16;4.47;;;4.07;;
12332;SDS011;6232;48.094;11.288;2024-02-26T09:06:01;4.43;;;4.00;;
12332;SDS011;6232;48.094;11.288;2024-02-26T09:08:47;3.50;;;3.20;;
12332;SDS011;6232;48.094;11.288;2024-02-26T09:11:33;6.90;;;3.57;;
12332;SDS011;6232;48.094;11.288;2024-02-26T09:14:18;6.30;;;3.10;;
12332;SDS011;6232;48.094;11.288;2024-02-26T09:17:04;5.60;;;2.57;;
12332;SDS011;6232;48.094;11.288;2024-02-26T09:19:51;4.43;;;2.93;;
12332;SDS011;6232;48.094;11.288;2024-02-26T09:22:36;5.00;;;2.83;;
12332;SDS011;6232;48.094;11.288;2024-02-26T09:25:23;3.50;;;2.80;;
12332;SDS011;6232;48.094;11.288;2024-02-26T09:28:08;3.10;;;2.80;;
12332;SDS011;6232;48.094;11.288;2024-02-26T09:30:54;4.17;;;2.80;;
12332;SDS011;6232;48.094;11.288;2024-02-26T09:33:39;2.90;;;2.60;;
12332;SDS011;6232;48.094;11.288;2024-02-26T09:36:25;5.97;;;2.77;;
12332;SDS011;6232;48.094;11.288;2024-02-26T09:39:10;3.00;;;2.70;;
12332;SDS011;6232;48.094;11.288;2024-02-26T09:41:56;3.87;;;2.67;;
12332;SDS011;6232;48.094;11.288;2024-02-26T09:44:42;2.60;;;2.40;;
12332;SDS011;6232;48.094;11.288;2024-02-26T09:47:30;5.03;;;2.63;;
12332;SDS011;6232;48.094;11.288;2024-02-26T09:50:16;3.07;;;2.27;;
12332;SDS011;6232;48.094;11.288;2024-02-26T09:53:03;3.43;;;2.30;;
12332;SDS011;6232;48.094;11.288;2024-02-26T09:55:50;2.77;;;2.13;;
12332;SDS011;6232;48.094;11.288;2024-02-26T09:58:36;6.50;;;2.50;;
12332;SDS011;6232;48.094;11.288;2024-02-26T10:01:22;3.53;;;2.00;;
12332;SDS011;6232;48.094;11.288;2024-02-26T10:04:09;3.10;;;2.60;;
12332;SDS011;6232;48.094;11.288;2024-02-26T10:06:56;5.47;;;2.80;;
12332;SDS011;6232;48.094;11.288;2024-02-26T10:09:41;4.73;;;2.33;;
12332;SDS011;6232;48.094;11.288;2024-02-26T10:12:27;4.10;;;2.00;;
12332;SDS011;6232;48.094;11.288;2024-02-26T10:15:13;3.30;;;2.73;;
12332;SDS011;6232;48.094;11.288;2024-02-26T10:17:59;4.40;;;2.27;;
12332;SDS011;6232;48.094;11.288;2024-02-26T10:21:00;2.20;;;2.00;;
12332;SDS011;6232;48.094;11.288;2024-02-26T10:23:49;3.90;;;1.80;;
12332;SDS011;6232;48.094;11.288;2024-02-26T10:26:38;2.70;;;1.97;;
12332;SDS011;6232;48.094;11.288;2024-02-26T10:29:30;3.33;;;2.70;;
12332;SDS011;6232;48.094;11.288;2024-02-26T10:32:16;3.43;;;2.20;;
12332;SDS011;6232;48.094;11.288;2024-02-26T10:35:02;3.33;;;2.93;;
12332;SDS011;6232;48.094;11.288;2024-02-26T10:37:51;5.70;;;2.90;;
12332;SDS011;6232;48.094;11.288;2024-02-26T10:40:37;3.27;;;2.27;;
12332;SDS011;6232;48.094;11.288;2024-02-26T10:43:25;6.00;;;2.80;;
12332;SDS011;6232;48.094;11.288;2024-02-26T10:46:10;5.13;;;1.93;;
12332;SDS011;6232;48.094;11.288;2024-02-26T10:48:56;4.50;;;2.23;;
12332;SDS011;6232;48.094;11.288;2024-02-26T10:51:43;7.60;;;2.30;;
12332;SDS011;6232;48.094;11.288;2024-02-26T10:54:29;5.67;;;2.47;;
12332;SDS011;6232;48.094;11.288;2024-02-26T10:57:15;2.90;;;2.20;;
12332;SDS011;6232;48.094;11.288;2024-02-26T11:00:02;8.10;;;3.03;;
12332;SDS011;6232;48.094;11.288;2024-02-26T11:02:49;4.03;;;1.70;;
12332;SDS011;6232;48.094;11.288;2024-02-26T11:05:36;3.23;;;2.03;;
12332;SDS011;6232;48.094;11.288;2024-02-26T11:08:22;2.03;;;1.50;;
12332;SDS011;6232;48.094;11.288;2024-02-26T11:11:10;1.30;;;1.20;;
12332;SDS011;6232;48.094;11.288;2024-02-26T11:14:00;2.43;;;1.73;;
12332;SDS011;6232;48.094;11.288;2024-02-26T11:16:47;1.67;;;1.30;;
12332;SDS011;6232;48.094;11.288;2024-02-26T11:19:33;2.13;;;1.50;;
12332;SDS011;6232;48.094;11.288;2024-02-26T11:22:19;1.83;;;1.20;;
12332;SDS011;6232;48.094;11.288;2024-02-26T11:25:07;2.40;;;1.37;;
12332;SDS011;6232;48.094;11.288;2024-02-26T11:27:58;12.40;;;2.00;;
12332;SDS011;6232;48.094;11.288;2024-02-26T11:30:47;3.67;;;1.40;;
12332;SDS011;6232;48.094;11.288;2024-02-26T11:33:33;2.20;;;1.40;;
12332;SDS011;6232;48.094;11.288;2024-02-26T11:36:21;1.30;;;1.00;;
12332;SDS011;6232;48.094;11.288;2024-02-26T11:39:08;1.30;;;1.20;;
12332;SDS011;6232;48.094;11.288;2024-02-26T11:42:04;1.50;;;1.40;;
12332;SDS011;6232;48.094;11.288;2024-02-26T11:44:50;1.63;;;1.20;;
12332;SDS011;6232;48.094;11.288;2024-02-26T11:47:36;1.60;;;1.30;;
12332;SDS011;6232;48.094;11.288;2024-02-26T11:50:34;1.53;;;0.97;;
12332;SDS011;6232;48.094;11.288;2024-02-26T11:53:27;2.17;;;1.37;;
12332;SDS011;6232;48.094;11.288;2024-02-26T11:56:19;3.00;;;1.30;;
12332;SDS011;6232;48.094;11.288;2024-02-26T11:59:11;3.93;;;1.57;;
12332;SDS011;6232;48.094;11.288;2024-02-26T12:01:58;3.00;;;1.17;;
12332;SDS011;6232;48.094;11.288;2024-02-26T12:04:43;1.33;;;1.23;;
12332;SDS011;6232;48.094;11.288;2024-02-26T12:07:29;1.80;;;1.70;;
12332;SDS011;6232;48.094;11.288;2024-02-26T12:10:15;1.43;;;1.33;;
12332;SDS011;6232;48.094;11.288;2024-02-26T12:13:10;2.93;;;1.17;;
12332;SDS011;6232;48.094;11.288;2024-02-26T12:15:57;4.33;;;1.00;;
12332;SDS011;6232;48.094;11.288;2024-02-26T12:18:44;2.70;;;1.03;;
12332;SDS011;6232;48.094;11.288;2024-02-26T12:21:31;4.13;;;1.10;;
12332;SDS011;6232;48.094;11.288;2024-02-26T12:24:16;2.37;;;1.23;;
12332;SDS011;6232;48.094;11.288;2024-02-26T12:27:03;1.50;;;1.10;;
12332;SDS011;6232;48.094;11.288;2024-02-26T12:29:49;2.87;;;0.93;;
12332;SDS011;6232;48.094;11.288;2024-02-26T12:32:34;2.97;;;1.00;;
12332;SDS011;6232;48.094;11.288;2024-02-26T12:35:20;3.93;;;1.80;;
12332;SDS011;6232;48.094;11.288;2024-02-26T12:38:06;1.23;;;1.13;;
12332;SDS011;6232;48.094;11.288;2024-02-26T12:40:51;2.80;;;1.27;;
12332;SDS011;6232;48.094;11.288;2024-02-26T12:43:37;2.10;;;1.53;;
12332;SDS011;6232;48.094;11.288;2024-02-26T12:46:23;2.50;;;1.43;;
12332;SDS011;6232;48.094;11.288;2024-02-26T12:49:08;2.20;;;1.43;;
12332;SDS011;6232;48.094;11.288;2024-02-26T12:51:54;5.30;;;1.60;;
12332;SDS011;6232;48.094;11.288;2024-02-26T12:54:46;3.73;;;1.30;;
12332;SDS011;6232;48.094;11.288;2024-02-26T12:57:32;2.70;;;1.23;;
12332;SDS011;6232;48.094;11.288;2024-02-26T13:00:18;5.80;;;1.20;;
12332;SDS011;6232;48.094;11.288;2024-02-26T13:03:06;2.73;;;1.10;;
12332;SDS011;6232;48.094;11.288;2024-02-26T13:05:51;2.80;;;1.50;;
12332;SDS011;6232;48.094;11.288;2024-02-26T13:08:37;1.10;;;1.00;;
12332;SDS011;6232;48.094;11.288;2024-02-26T13:11:23;3.10;;;1.10;;
12332;SDS011;6232;48.094;11.288;2024-02-26T13:14:18;3.17;;;1.43;;
12332;SDS011;6232;48.094;11.288;2024-02-26T13:17:04;2.00;;;1.50;;
12332;SDS011;6232;48.094;11.288;2024-02-26T13:19:50;1.73;;;1.37;;
12332;SDS011;6232;48.094;11.288;2024-02-26T13:22:36;3.17;;;1.10;;
12332;SDS011;6232;48.094;11.288;2024-02-26T13:25:22;3.40;;;1.57;;
12332;SDS011;6232;48.094;11.288;2024-02-26T13:28:08;2.13;;;1.50;;
12332;SDS011;6232;48.094;11.288;2024-02-26T13:30:55;1.37;;;1.27;;
12332;SDS011;6232;48.094;11.288;2024-02-26T13:33:45;1.50;;;1.40;;
12332;SDS011;6232;48.094;11.288;2024-02-26T13:36:31;2.30;;;1.50;;
12332;SDS011;6232;48.094;11.288;2024-02-26T13:39:27;2.80;;;1.50;;
12332;SDS011;6232;48.094;11.288;2024-02-26T13:42:12;2.07;;;1.93;;
12332;SDS011;6232;48.094;11.288;2024-02-26T13:44:58;1.83;;;1.43;;
12332;SDS011;6232;48.094;11.288;2024-02-26T13:47:43;4.73;;;1.60;;
12332;SDS011;6232;48.094;11.288;2024-02-26T13:50:29;2.20;;;1.20;;
12332;SDS011;6232;48.094;11.288;2024-02-26T13:53:15;1.83;;;1.50;;
12332;SDS011;6232;48.094;11.288;2024-02-26T13:56:01;1.80;;;1.40;;
12332;SDS011;6232;48.094;11.288;2024-02-26T13:58:49;2.33;;;1.57;;
12332;SDS011;6232;48.094;11.288;2024-02-26T14:01:35;4.83;;;1.50;;
12332;SDS011;6232;48.094;11.288;2024-02-26T14:04:20;1.60;;;1.37;;
12332;SDS011;6232;48.094;11.288;2024-02-26T14:07:06;2.17;;;1.80;;
12332;SDS011;6232;48.094;11.288;2024-02-26T14:09:52;2.63;;;1.60;;
12332;SDS011;6232;48.094;11.288;2024-02-26T14:12:38;1.77;;;1.50;;
12332;SDS011;6232;48.094;11.288;2024-02-26T14:15:24;2.30;;;1.70;;
12332;SDS011;6232;48.094;11.288;2024-02-26T14:18:09;1.97;;;1.67;;
12332;SDS011;6232;48.094;11.288;2024-02-26T14:20:55;2.33;;;1.40;;
12332;SDS011;6232;48.094;11.288;2024-02-26T14:23:40;2.00;;;1.53;;
12332;SDS011;6232;48.094;11.288;2024-02-26T14:26:27;2.17;;;1.90;;
12332;SDS011;6232;48.094;11.288;2024-02-26T14:29:13;2.10;;;1.90;;
12332;SDS011;6232;48.094;11.288;2024-02-26T14:31:59;2.20;;;1.77;;
12332;SDS011;6232;48.094;11.288;2024-02-26T14:34:45;2.20;;;2.00;;
12332;SDS011;6232;48.094;11.288;2024-02-26T14:37:31;3.37;;;1.90;;
12332;SDS011;6232;48.094;11.288;2024-02-26T14:40:17;2.47;;;1.80;;
12332;SDS011;6232;48.094;11.288;2024-02-26T14:43:03;2.90;;;1.53;;
12332;SDS011;6232;48.094;11.288;2024-02-26T14:45:50;2.03;;;1.63;;
12332;SDS011;6232;48.094;11.288;2024-02-26T14:48:35;4.03;;;1.83;;
12332;SDS011;6232;48.094;11.288;2024-02-26T14:51:21;6.07;;;2.03;;
12332;SDS011;6232;48.094;11.288;2024-02-26T14:54:07;4.23;;;2.10;;
12332;SDS011;6232;48.094;11.288;2024-02-26T14:56:53;5.43;;;2.30;;
12332;SDS011;6232;48.094;11.288;2024-02-26T14:59:38;3.93;;;2.50;;
12332;SDS011;6232;48.094;11.288;2024-02-26T15:02:24;2.90;;;2.60;;
12332;SDS011;6232;48.094;11.288;2024-02-26T15:05:09;6.90;;;2.70;;
12332;SDS011;6232;48.094;11.288;2024-02-26T15:07:56;7.23;;;2.87;;
12332;SDS011;6232;48.094;11.288;2024-02-26T15:10:42;4.40;;;3.20;;
12332;SDS011;6232;48.094;11.288;2024-02-26T15:13:33;2.50;;;2.30;;
12332;SDS011;6232;48.094;11.288;2024-02-26T15:16:19;3.43;;;2.70;;
12332;SDS011;6232;48.094;11.288;2024-02-26T15:19:06;3.13;;;2.83;;
12332;SDS011;6232;48.094;11.288;2024-02-26T15:21:52;2.70;;;2.50;;
12332;SDS011;6232;48.094;11.288;2024-02-26T15:24:38;5.33;;;2.93;;
12332;SDS011;6232;48.094;11.288;2024-02-26T15:27:23;5.07;;;3.00;;
12332;SDS011;6232;48.094;11.288;2024-02-26T15:30:09;5.37;;;2.57;;
12332;SDS011;6232;48.094;11.288;2024-02-26T15:32:55;4.10;;;2.83;;
12332;SDS011;6232;48.094;11.288;2024-02-26T15:35:41;2.83;;;2.20;;
12332;SDS011;6232;48.094;11.288;2024-02-26T15:38:30;3.63;;;2.30;;
12332;SDS011;6232;48.094;11.288;2024-02-26T15:41:15;4.53;;;2.37;;
12332;SDS011;6232;48.094;11.288;2024-02-26T15:44:02;2.30;;;2.10;;
12332;SDS011;6232;48.094;11.288;2024-02-26T15:46:48;3.57;;;2.37;;
12332;SDS011;6232;48.094;11.288;2024-02-26T15:49:33;3.40;;;2.30;;
12332;SDS011;6232;48.094;11.288;2024-02-26T15:52:19;4.53;;;3.13;;
12332;SDS011;6232;48.094;11.288;2024-02-26T15:55:05;5.80;;;4.23;;
12332;SDS011;6232;48.094;11.288;2024-02-26T15:57:50;4.50;;;4.10;;
12332;SDS011;6232;48.094;11.288;2024-02-26T16:00:38;13.37;;;7.20;;
12332;SDS011;6232;48.094;11.288;2024-02-26T16:03:24;3.90;;;3.50;;
12332;SDS011;6232;48.094;11.288;2024-02-26T16:06:12;7.07;;;4.20;;
12332;SDS011;6232;48.094;11.288;2024-02-26T16:08:59;7.30;;;3.50;;
12332;SDS011;6232;48.094;11.288;2024-02-26T16:11:44;5.93;;;3.47;;
12332;SDS011;6232;48.094;11.288;2024-02-26T16:14:49;5.53;;;3.80;;
12332;SDS011;6232;48.094;11.288;2024-02-26T16:17:35;6.47;;;3.17;;
12332;SDS011;6232;48.094;11.288;2024-02-26T16:20:22;7.07;;;3.83;;
12332;SDS011;6232;48.094;11.288;2024-02-26T16:23:09;4.80;;;4.07;;
12332;SDS011;6232;48.094;11.288;2024-02-26T16:25:55;8.33;;;5.03;;
12332;SDS011;6232;48.094;11.288;2024-02-26T16:28:41;4.80;;;3.93;;
12332;SDS011;6232;48.094;11.288;2024-02-26T16:31:26;7.83;;;4.87;;
12332;SDS011;6232;48.094;11.288;2024-02-26T16:34:12;5.90;;;4.20;;
12332;SDS011;6232;48.094;11.288;2024-02-26T16:36:57;4.63;;;3.63;;
12332;SDS011;6232;48.094;11.288;2024-02-26T16:39:43;2.60;;;2.40;;
12332;SDS011;6232;48.094;11.288;2024-02-26T16:42:28;3.43;;;3.13;;